Time;durP1;ratioP1;P1;durP2;ratioP2;P2;SDS_P1;SDS_P2;PMS_P1;PMS_P2;Temp;Humidity;BMP_temperature;BMP_pressure;BME280_temperature;BME280_humidity;BME280_pressure;Samples;Min_cycle;Max_cycle;Signal;HPM_P1;HPM_P2
2022/10/12 00:02:18;;;;;;;74.63;58.25;;;;;;;;;;6276349;22;20362;-77
2022/10/12 00:04:44;;;;;;;75.65;57.22;;;;;;;;;;6276624;22;20003;-77
2022/10/12 00:07:10;;;;;;;80.53;57.58;;;;;;;;;;6277006;22;20004;-77
2022/10/12 00:09:36;;;;;;;80.72;59.80;;;;;;;;;;6276274;22;20018;-77
2022/10/12 00:12:02;;;;;;;71.28;57.63;;;;;;;;;;6276478;22;20004;-77
2022/10/12 00:14:28;;;;;;;74.35;57.63;;;;;;;;;;6276576;22;20054;-77
2022/10/12 00:16:54;;;;;;;78.60;59.28;;;;;;;;;;6276825;22;20004;-76
2022/10/12 00:19:20;;;;;;;82.47;60.47;;;;;;;;;;6276496;22;20315;-77
2022/10/12 00:21:46;;;;;;;77.28;57.78;;;;;;;;;;6276270;22;20000;-77
2022/10/12 00:24:12;;;;;;;79.35;58.63;;;;;;;;;;6275764;22;20520;-77
2022/10/12 00:26:38;;;;;;;82.50;59.17;;;;;;;;;;6275264;22;20039;-77
2022/10/12 00:29:04;;;;;;;76.53;60.28;;;;;;;;;;6276432;22;20023;-77
2022/10/12 00:31:31;;;;;;;79.53;60.65;;;;;;;;;;6275543;22;20000;-76
2022/10/12 00:34:02;;;;;;;74.32;57.30;;;;;;;;;;6276754;22;20455;-77
2022/10/12 00:36:31;;;;;;;73.75;57.50;;;;;;;;;;6275364;22;20063;-77
2022/10/12 00:38:58;;;;;;;79.75;59.10;;;;;;;;;;6276308;22;20018;-77
2022/10/12 00:41:25;;;;;;;75.72;57.67;;;;;;;;;;6275505;22;20409;-76
2022/10/12 00:43:52;;;;;;;74.55;58.97;;;;;;;;;;6276277;22;20008;-76
2022/10/12 00:46:22;;;;;;;79.07;59.42;;;;;;;;;;6276269;22;20006;-77
2022/10/12 00:48:51;;;;;;;73.15;57.72;;;;;;;;;;6276280;22;20019;-77
2022/10/12 00:51:18;;;;;;;71.07;58.22;;;;;;;;;;6276007;22;20449;-76
2022/10/12 00:53:49;;;;;;;77.35;57.70;;;;;;;;;;6275999;22;19995;-77
2022/10/12 00:56:18;;;;;;;75.50;59.53;;;;;;;;;;6276990;22;20008;-77
2022/10/12 00:58:45;;;;;;;81.30;60.53;;;;;;;;;;6276706;22;20008;-77
2022/10/12 01:01:11;;;;;;;76.43;60.38;;;;;;;;;;6277931;22;20000;-77
2022/10/12 01:03:38;;;;;;;76.35;58.85;;;;;;;;;;6279132;22;20007;-77
2022/10/12 01:06:05;;;;;;;75.82;59.30;;;;;;;;;;6251805;22;20083;-77
2022/10/12 01:08:31;;;;;;;72.57;57.58;;;;;;;;;;6278642;22;20394;-77
2022/10/12 01:10:57;;;;;;;72.78;58.10;;;;;;;;;;6278497;22;19999;-77
2022/10/12 01:13:23;;;;;;;73.88;59.40;;;;;;;;;;6278113;22;20029;-77
2022/10/12 01:16:10;;;;;;;76.70;58.05;;;;;;;;;;6279747;22;20004;-77
2022/10/12 01:18:47;;;;;;;82.60;63.17;;;;;;;;;;6279361;22;20019;-77
2022/10/12 01:21:17;;;;;;;79.38;61.45;;;;;;;;;;6277493;22;20007;-77
2022/10/12 01:23:56;;;;;;;74.82;60.15;;;;;;;;;;6277233;22;20053;-77
2022/10/12 01:26:34;;;;;;;77.35;59.80;;;;;;;;;;6277683;22;20430;-77
2022/10/12 01:29:19;;;;;;;80.35;60.55;;;;;;;;;;6277727;22;20295;-76
2022/10/12 01:31:51;;;;;;;84.07;63.80;;;;;;;;;;6277674;22;20003;-77
2022/10/12 01:34:35;;;;;;;76.47;62.03;;;;;;;;;;6249490;22;20006;-77
2022/10/12 01:37:07;;;;;;;81.25;62.72;;;;;;;;;;6277771;22;20067;-77
2022/10/12 01:39:35;;;;;;;75.43;57.63;;;;;;;;;;6276252;22;20007;-77
2022/10/12 01:42:04;;;;;;;79.82;61.17;;;;;;;;;;6250709;22;19995;-77
2022/10/12 01:44:31;;;;;;;76.95;60.38;;;;;;;;;;6277027;22;20003;-77
2022/10/12 01:46:57;;;;;;;74.57;59.70;;;;;;;;;;6277749;22;20078;-77
2022/10/12 01:49:26;;;;;;;76.55;62.00;;;;;;;;;;6277786;22;20369;-77
2022/10/12 01:51:57;;;;;;;75.47;59.47;;;;;;;;;;6277632;22;20030;-77
2022/10/12 01:54:26;;;;;;;78.53;59.05;;;;;;;;;;6276612;22;20054;-77
2022/10/12 01:56:58;;;;;;;73.80;59.00;;;;;;;;;;6278288;22;20008;-77
2022/10/12 01:59:43;;;;;;;73.70;58.95;;;;;;;;;;6275780;22;20022;-77
2022/10/12 02:02:39;;;;;;;78.63;61.17;;;;;;;;;;6250446;22;20007;-77
2022/10/12 02:05:10;;;;;;;75.03;58.97;;;;;;;;;;6123290;23;20006;-77
2022/10/12 02:07:41;;;;;;;79.97;62.47;;;;;;;;;;6123972;23;20010;-77
2022/10/12 02:10:11;;;;;;;76.22;58.95;;;;;;;;;;6123303;23;20081;-77
2022/10/12 02:12:39;;;;;;;84.80;60.65;;;;;;;;;;6124713;23;20034;-77
2022/10/12 02:15:07;;;;;;;85.03;63.45;;;;;;;;;;6122382;23;20101;-78
2022/10/12 02:17:34;;;;;;;83.90;64.70;;;;;;;;;;6124313;23;20014;-77
2022/10/12 02:20:01;;;;;;;79.80;62.90;;;;;;;;;;6125595;23;20006;-77
2022/10/12 02:22:37;;;;;;;84.20;62.72;;;;;;;;;;6124789;23;20145;-76
2022/10/12 02:25:06;;;;;;;76.60;60.58;;;;;;;;;;6124505;23;20085;-77
2022/10/12 02:27:34;;;;;;;74.28;58.45;;;;;;;;;;6123707;23;20006;-76
2022/10/12 02:30:00;;;;;;;84.38;62.60;;;;;;;;;;6124291;23;20013;-77
2022/10/12 02:32:37;;;;;;;86.43;63.33;;;;;;;;;;6124647;23;20005;-77
2022/10/12 02:35:04;;;;;;;83.60;60.65;;;;;;;;;;6124296;23;20005;-77
2022/10/12 02:37:33;;;;;;;77.18;62.45;;;;;;;;;;6123234;23;20033;-77
2022/10/12 02:40:03;;;;;;;84.63;60.50;;;;;;;;;;6125185;23;20034;-77
2022/10/12 02:42:31;;;;;;;77.50;59.28;;;;;;;;;;6268276;22;20004;-78
2022/10/12 02:44:59;;;;;;;74.75;56.97;;;;;;;;;;6278814;22;20087;-77
2022/10/12 02:47:26;;;;;;;72.82;58.70;;;;;;;;;;6277805;22;20632;-78
2022/10/12 02:49:53;;;;;;;77.20;60.92;;;;;;;;;;6278589;22;20079;-77
2022/10/12 02:52:19;;;;;;;78.07;60.33;;;;;;;;;;6277943;22;20058;-77
2022/10/12 02:54:46;;;;;;;73.85;57.67;;;;;;;;;;6277306;22;20031;-77
2022/10/12 02:57:12;;;;;;;88.43;62.78;;;;;;;;;;6277450;22;20004;-77
2022/10/12 02:59:38;;;;;;;84.53;61.92;;;;;;;;;;6276765;22;20022;-77
2022/10/12 03:02:04;;;;;;;82.05;60.53;;;;;;;;;;6277342;22;20333;-77
2022/10/12 03:04:30;;;;;;;78.45;57.72;;;;;;;;;;6277674;22;20000;-77
2022/10/12 03:06:56;;;;;;;71.82;56.35;;;;;;;;;;6277450;22;20384;-77
2022/10/12 03:09:22;;;;;;;71.07;54.22;;;;;;;;;;6276029;22;19999;-77
2022/10/12 03:11:48;;;;;;;68.75;55.17;;;;;;;;;;6248627;22;20393;-77
2022/10/12 03:14:15;;;;;;;69.00;54.03;;;;;;;;;;6276139;22;20071;-77
2022/10/12 03:16:42;;;;;;;70.35;55.30;;;;;;;;;;6276702;22;20030;-77
2022/10/12 03:19:08;;;;;;;70.47;56.25;;;;;;;;;;6248613;22;20016;-76
2022/10/12 03:21:35;;;;;;;69.20;56.70;;;;;;;;;;6276741;22;19992;-77
2022/10/12 03:24:01;;;;;;;73.55;58.35;;;;;;;;;;6277170;22;20046;-77
2022/10/12 03:26:27;;;;;;;76.97;57.20;;;;;;;;;;6276801;22;20011;-77
2022/10/12 03:28:53;;;;;;;74.93;58.33;;;;;;;;;;6276748;22;20031;-77
2022/10/12 03:31:19;;;;;;;65.90;53.00;;;;;;;;;;6275597;22;20325;-77
2022/10/12 03:33:45;;;;;;;78.00;59.53;;;;;;;;;;6276580;22;20003;-76
2022/10/12 03:36:11;;;;;;;69.57;54.45;;;;;;;;;;6275371;22;19996;-76
2022/10/12 03:38:37;;;;;;;71.47;55.25;;;;;;;;;;6275767;22;20027;-76
2022/10/12 03:41:03;;;;;;;78.32;56.22;;;;;;;;;;6276338;22;19996;-77
2022/10/12 03:43:29;;;;;;;75.03;55.20;;;;;;;;;;6276197;22;20332;-76
2022/10/12 03:45:55;;;;;;;73.45;55.65;;;;;;;;;;6275829;22;20022;-76
2022/10/12 03:48:21;;;;;;;73.43;55.85;;;;;;;;;;6277024;22;20337;-77
2022/10/12 03:50:51;;;;;;;71.50;55.55;;;;;;;;;;6275149;22;20067;-77
2022/10/12 03:53:18;;;;;;;73.05;55.42;;;;;;;;;;6276687;22;20004;-78
2022/10/12 03:55:44;;;;;;;70.10;54.28;;;;;;;;;;6275712;22;20492;-77
2022/10/12 03:58:10;;;;;;;72.28;53.15;;;;;;;;;;6249445;22;20015;-78
2022/10/12 04:00:36;;;;;;;67.65;51.92;;;;;;;;;;6250385;22;20082;-77
2022/10/12 04:03:03;;;;;;;66.10;52.50;;;;;;;;;;6276808;22;19999;-78
2022/10/12 04:05:29;;;;;;;67.15;51.47;;;;;;;;;;6276923;22;20002;-77
2022/10/12 04:07:55;;;;;;;75.40;52.28;;;;;;;;;;6276704;22;20000;-78
2022/10/12 04:10:21;;;;;;;71.05;51.85;;;;;;;;;;6276688;22;20071;-77
2022/10/12 04:12:47;;;;;;;71.03;52.22;;;;;;;;;;6277055;22;20010;-77
2022/10/12 04:15:13;;;;;;;72.85;52.42;;;;;;;;;;6276894;22;20043;-78
2022/10/12 04:17:39;;;;;;;68.93;53.28;;;;;;;;;;6276904;22;20008;-76
2022/10/12 04:20:06;;;;;;;72.95;51.83;;;;;;;;;;6276249;22;20007;-77
2022/10/12 04:22:32;;;;;;;74.78;52.67;;;;;;;;;;6276372;22;20138;-76
2022/10/12 04:24:58;;;;;;;69.72;52.97;;;;;;;;;;6275481;22;20434;-76
2022/10/12 04:27:24;;;;;;;65.68;52.03;;;;;;;;;;6275837;22;20325;-76
2022/10/12 04:29:50;;;;;;;64.93;50.53;;;;;;;;;;6276122;22;20377;-76
2022/10/12 04:32:16;;;;;;;66.00;49.95;;;;;;;;;;6278008;22;20019;-77
2022/10/12 04:34:42;;;;;;;68.95;50.70;;;;;;;;;;6278264;22;20006;-76
2022/10/12 04:37:08;;;;;;;73.88;51.20;;;;;;;;;;6278241;22;20045;-77
2022/10/12 04:39:35;;;;;;;61.03;48.58;;;;;;;;;;6278029;22;20004;-77
2022/10/12 04:42:01;;;;;;;63.30;47.83;;;;;;;;;;6278041;22;20000;-77
2022/10/12 04:44:27;;;;;;;60.10;46.88;;;;;;;;;;6277892;22;20456;-76
2022/10/12 04:46:53;;;;;;;66.03;48.05;;;;;;;;;;6278378;22;20020;-76
2022/10/12 04:49:19;;;;;;;49.90;41.20;;;;;;;;;;6245970;22;20083;-75
2022/10/12 04:51:45;;;;;;;56.85;43.08;;;;;;;;;;6276917;22;20000;-76
2022/10/12 04:54:11;;;;;;;51.75;39.85;;;;;;;;;;6276239;22;20003;-77
2022/10/12 04:56:37;;;;;;;46.80;36.33;;;;;;;;;;6277403;22;20019;-76
2022/10/12 04:59:03;;;;;;;47.20;35.80;;;;;;;;;;6277421;22;20007;-77
2022/10/12 05:01:29;;;;;;;47.90;35.53;;;;;;;;;;6249426;22;20376;-77
2022/10/12 05:03:55;;;;;;;49.08;33.97;;;;;;;;;;6276921;22;20479;-77
2022/10/12 05:06:23;;;;;;;50.10;34.05;;;;;;;;;;6278847;22;20426;-78
2022/10/12 05:08:49;;;;;;;39.40;33.10;;;;;;;;;;6282039;22;20075;-76
2022/10/12 05:11:15;;;;;;;47.03;36.38;;;;;;;;;;6278326;22;20002;-77
2022/10/12 05:13:41;;;;;;;51.25;37.08;;;;;;;;;;6278091;22;20074;-77
2022/10/12 05:16:07;;;;;;;200.38;127.07;;;;;;;;;;6278519;22;20007;-79
2022/10/12 05:18:33;;;;;;;1999.90;999.90;;;;;;;;;;6278102;22;20015;-77
2022/10/12 05:20:59;;;;;;;270.08;200.38;;;;;;;;;;6278227;22;20000;-76
2022/10/12 05:23:25;;;;;;;163.48;114.97;;;;;;;;;;6280312;22;20003;-77
2022/10/12 05:25:53;;;;;;;57.63;41.05;;;;;;;;;;6277423;22;20011;-77
2022/10/12 05:28:20;;;;;;;50.28;37.95;;;;;;;;;;6277313;22;20149;-76
2022/10/12 05:30:48;;;;;;;61.78;41.13;;;;;;;;;;6277529;22;20077;-77
2022/10/12 05:33:14;;;;;;;48.95;37.65;;;;;;;;;;6276955;22;20004;-77
2022/10/12 05:35:41;;;;;;;49.42;36.63;;;;;;;;;;6277523;22;20022;-78
2022/10/12 05:38:07;;;;;;;53.03;35.92;;;;;;;;;;6277106;22;20153;-77
2022/10/12 05:40:33;;;;;;;40.55;30.45;;;;;;;;;;6277450;22;20074;-77
2022/10/12 05:42:59;;;;;;;36.42;27.65;;;;;;;;;;6279845;22;20048;-75
2022/10/12 05:45:34;;;;;;;36.60;25.98;;;;;;;;;;6251439;22;20015;-76
2022/10/12 05:48:00;;;;;;;52.60;26.65;;;;;;;;;;6254787;22;20062;-77
2022/10/12 05:50:26;;;;;;;39.45;26.73;;;;;;;;;;6283818;22;20008;-77
2022/10/12 05:52:52;;;;;;;41.95;31.60;;;;;;;;;;6250744;22;20438;-76
2022/10/12 05:55:18;;;;;;;48.00;33.28;;;;;;;;;;6276143;22;20012;-76
2022/10/12 05:57:44;;;;;;;45.10;33.53;;;;;;;;;;6276113;22;20008;-77
2022/10/12 06:00:11;;;;;;;45.45;34.30;;;;;;;;;;6276931;22;20100;-76
2022/10/12 06:02:37;;;;;;;41.47;34.05;;;;;;;;;;6250752;22;19996;-76
2022/10/12 06:05:04;;;;;;;49.50;35.47;;;;;;;;;;6276988;22;20000;-75
2022/10/12 06:07:30;;;;;;;48.80;36.53;;;;;;;;;;6277842;22;20002;-77
2022/10/12 06:09:56;;;;;;;49.63;35.90;;;;;;;;;;6250168;22;20375;-76
2022/10/12 06:12:23;;;;;;;42.92;35.17;;;;;;;;;;6279483;22;20321;-76
2022/10/12 06:14:49;;;;;;;45.88;35.15;;;;;;;;;;6278354;22;20097;-75
2022/10/12 06:17:15;;;;;;;39.72;32.55;;;;;;;;;;6276582;22;19999;-76
2022/10/12 06:19:42;;;;;;;45.95;35.33;;;;;;;;;;6276782;22;20023;-78
2022/10/12 06:22:08;;;;;;;47.80;38.08;;;;;;;;;;6276929;22;19996;-76
2022/10/12 06:24:34;;;;;;;50.63;38.92;;;;;;;;;;6275694;22;20050;-76
2022/10/12 06:27:01;;;;;;;52.15;41.05;;;;;;;;;;6275703;22;20075;-76
2022/10/12 06:29:27;;;;;;;51.15;39.38;;;;;;;;;;6275339;22;20010;-76
2022/10/12 06:31:53;;;;;;;49.22;37.63;;;;;;;;;;6276226;22;19999;-76
2022/10/12 06:34:19;;;;;;;49.80;39.75;;;;;;;;;;6276901;22;20026;-76
2022/10/12 06:36:45;;;;;;;54.83;39.42;;;;;;;;;;6276814;22;20004;-76
2022/10/12 06:39:12;;;;;;;53.80;38.80;;;;;;;;;;6276261;22;20384;-76
2022/10/12 06:41:38;;;;;;;52.17;36.55;;;;;;;;;;6275743;22;19996;-76
2022/10/12 06:44:04;;;;;;;46.65;34.15;;;;;;;;;;6274954;22;20007;-75
2022/10/12 06:46:30;;;;;;;50.67;35.97;;;;;;;;;;6249206;22;20440;-76
2022/10/12 06:48:56;;;;;;;44.30;36.13;;;;;;;;;;6275701;22;20000;-76
2022/10/12 06:51:22;;;;;;;50.28;37.35;;;;;;;;;;6275632;22;19999;-76
2022/10/12 06:53:48;;;;;;;50.80;35.35;;;;;;;;;;6275046;22;19999;-76
2022/10/12 06:56:14;;;;;;;43.40;34.47;;;;;;;;;;6275578;22;20008;-76
2022/10/12 06:58:41;;;;;;;74.05;52.78;;;;;;;;;;6275428;22;20011;-77
2022/10/12 07:01:09;;;;;;;51.70;35.17;;;;;;;;;;6274987;22;20075;-76
2022/10/12 07:03:35;;;;;;;53.35;35.78;;;;;;;;;;6276002;22;20422;-76
2022/10/12 07:06:06;;;;;;;37.28;31.10;;;;;;;;;;6275166;22;19996;-76
2022/10/12 07:08:32;;;;;;;86.60;74.63;;;;;;;;;;6273976;22;20434;-76
2022/10/12 07:11:02;;;;;;;57.40;47.70;;;;;;;;;;6275405;22;20069;-76
2022/10/12 07:13:28;;;;;;;44.90;34.00;;;;;;;;;;6275342;22;20438;-76
2022/10/12 07:15:54;;;;;;;41.53;33.03;;;;;;;;;;6275625;22;20459;-76
2022/10/12 07:18:20;;;;;;;37.13;30.30;;;;;;;;;;6274656;22;20014;-76
2022/10/12 07:20:46;;;;;;;44.58;32.40;;;;;;;;;;6276164;22;20062;-76
2022/10/12 07:23:12;;;;;;;43.38;32.92;;;;;;;;;;6275093;22;20003;-75
2022/10/12 07:25:38;;;;;;;46.00;31.88;;;;;;;;;;6247957;22;20378;-76
2022/10/12 07:28:05;;;;;;;42.38;32.17;;;;;;;;;;6248157;22;20342;-76
2022/10/12 07:30:31;;;;;;;44.05;33.05;;;;;;;;;;6275134;22;20065;-76
2022/10/12 07:32:57;;;;;;;48.63;34.38;;;;;;;;;;6275473;22;20433;-76
2022/10/12 07:35:23;;;;;;;43.60;34.15;;;;;;;;;;6274669;22;20007;-76
2022/10/12 07:37:49;;;;;;;45.60;35.92;;;;;;;;;;6275227;22;20012;-76
2022/10/12 07:40:15;;;;;;;44.60;36.58;;;;;;;;;;6273998;22;19999;-76
2022/10/12 07:42:42;;;;;;;45.60;35.92;;;;;;;;;;6274738;22;20145;-76
2022/10/12 07:45:08;;;;;;;53.25;36.33;;;;;;;;;;6275829;22;20008;-76
2022/10/12 07:47:34;;;;;;;52.50;36.67;;;;;;;;;;6275334;22;19996;-76
2022/10/12 07:50:00;;;;;;;53.40;37.30;;;;;;;;;;6274925;22;19999;-76
2022/10/12 07:52:27;;;;;;;53.42;40.38;;;;;;;;;;6275045;22;20006;-76
2022/10/12 07:54:53;;;;;;;51.97;38.00;;;;;;;;;;6275733;22;20430;-76
2022/10/12 07:57:19;;;;;;;45.75;35.17;;;;;;;;;;6275939;22;20326;-76
2022/10/12 07:59:46;;;;;;;42.17;34.88;;;;;;;;;;6275471;22;20042;-76
2022/10/12 08:02:12;;;;;;;47.30;34.85;;;;;;;;;;6275827;22;20051;-76
2022/10/12 08:04:38;;;;;;;44.58;35.20;;;;;;;;;;6275429;22;20018;-76
2022/10/12 08:07:04;;;;;;;43.88;34.72;;;;;;;;;;6276787;22;20003;-76
2022/10/12 08:09:30;;;;;;;42.75;34.63;;;;;;;;;;6276481;22;20004;-76
2022/10/12 08:11:56;;;;;;;36.33;32.05;;;;;;;;;;6277420;22;20325;-76
2022/10/12 08:14:22;;;;;;;44.00;34.53;;;;;;;;;;6275399;22;20083;-75
2022/10/12 08:16:48;;;;;;;40.95;33.30;;;;;;;;;;6276970;22;20038;-75
2022/10/12 08:19:14;;;;;;;42.28;33.08;;;;;;;;;;6276649;22;20425;-75
2022/10/12 08:21:41;;;;;;;42.88;33.53;;;;;;;;;;6276985;22;20299;-75
2022/10/12 08:24:08;;;;;;;36.88;30.23;;;;;;;;;;6275718;22;20023;-75
2022/10/12 08:26:34;;;;;;;43.80;32.80;;;;;;;;;;6277468;22;20004;-76
2022/10/12 08:29:04;;;;;;;49.42;32.38;;;;;;;;;;6277214;22;20426;-76
2022/10/12 08:31:30;;;;;;;38.03;32.40;;;;;;;;;;6277586;22;20000;-76
2022/10/12 08:33:56;;;;;;;49.58;36.67;;;;;;;;;;6277301;22;19999;-76
2022/10/12 08:36:23;;;;;;;44.35;36.05;;;;;;;;;;6276035;22;20475;-76
2022/10/12 08:38:53;;;;;;;46.13;36.85;;;;;;;;;;6248813;22;20019;-76
2022/10/12 08:41:28;;;;;;;41.53;34.60;;;;;;;;;;6276713;22;19996;-76
2022/10/12 08:43:57;;;;;;;44.50;36.28;;;;;;;;;;6275717;22;20011;-76
2022/10/12 08:46:25;;;;;;;46.05;34.03;;;;;;;;;;6277940;22;20502;-77
2022/10/12 08:48:58;;;;;;;47.35;36.20;;;;;;;;;;6279229;22;20053;-76
2022/10/12 08:51:26;;;;;;;45.28;35.40;;;;;;;;;;6277877;22;19996;-77
2022/10/12 08:54:04;;;;;;;44.33;36.10;;;;;;;;;;6277268;22;20003;-76
2022/10/12 08:56:33;;;;;;;43.08;34.00;;;;;;;;;;6276730;22;20012;-77
2022/10/12 08:59:00;;;;;;;46.97;35.70;;;;;;;;;;6250359;22;20045;-79
2022/10/12 09:01:26;;;;;;;43.78;35.42;;;;;;;;;;6279239;22;19996;-77
2022/10/12 09:04:08;;;;;;;44.30;34.67;;;;;;;;;;6277031;22;20027;-77
2022/10/12 09:06:38;;;;;;;49.10;35.80;;;;;;;;;;6277382;22;20008;-76
2022/10/12 09:09:32;;;;;;;46.45;35.95;;;;;;;;;;6277406;22;20050;-76
2022/10/12 09:11:58;;;;;;;45.90;37.05;;;;;;;;;;6277476;22;20006;-76
2022/10/12 09:14:30;;;;;;;46.28;35.92;;;;;;;;;;6276428;22;20003;-77
2022/10/12 09:16:56;;;;;;;46.13;36.22;;;;;;;;;;6276159;22;20057;-79
2022/10/12 09:19:49;;;;;;;47.15;38.15;;;;;;;;;;6277885;22;20342;-77
2022/10/12 09:22:18;;;;;;;40.90;35.03;;;;;;;;;;6269655;22;20075;-76
2022/10/12 09:24:46;;;;;;;46.55;38.03;;;;;;;;;;6276472;22;19992;-77
2022/10/12 09:27:16;;;;;;;48.85;36.85;;;;;;;;;;6276622;22;20322;-76
2022/10/12 09:29:45;;;;;;;46.47;37.17;;;;;;;;;;6276158;22;20053;-76
2022/10/12 09:32:20;;;;;;;48.72;37.08;;;;;;;;;;6276552;22;19999;-76
2022/10/12 09:34:47;;;;;;;44.90;36.25;;;;;;;;;;6276580;22;20003;-76
2022/10/12 09:37:28;;;;;;;44.88;36.45;;;;;;;;;;6277103;22;20004;-76
2022/10/12 09:39:55;;;;;;;44.38;37.63;;;;;;;;;;6276045;22;20012;-76
2022/10/12 09:42:21;;;;;;;42.60;35.97;;;;;;;;;;6276591;22;20071;-77
2022/10/12 09:44:48;;;;;;;42.65;36.20;;;;;;;;;;6277269;22;20010;-76
2022/10/12 09:47:22;;;;;;;49.85;37.10;;;;;;;;;;6277032;22;20321;-77
2022/10/12 09:49:49;;;;;;;43.58;35.13;;;;;;;;;;6276711;22;20165;-76
2022/10/12 09:52:17;;;;;;;46.10;34.42;;;;;;;;;;6279519;22;19996;-77
2022/10/12 09:54:50;;;;;;;44.38;33.90;;;;;;;;;;6279771;22;20000;-78
2022/10/12 09:57:49;;;;;;;44.22;32.05;;;;;;;;;;6278288;22;20027;-77
2022/10/12 10:00:29;;;;;;;40.08;32.58;;;;;;;;;;6285052;22;20038;-76
2022/10/12 10:03:03;;;;;;;42.95;33.85;;;;;;;;;;6291364;22;20003;-78
2022/10/12 10:06:14;;;;;;;39.88;33.65;;;;;;;;;;6284303;22;20656;-78
2022/10/12 10:09:02;;;;;;;41.97;31.13;;;;;;;;;;6291255;22;20012;-76
2022/10/12 10:11:30;;;;;;;34.33;29.45;;;;;;;;;;6290372;22;19994;-78
2022/10/12 10:13:58;;;;;;;34.28;29.55;;;;;;;;;;6296955;22;20000;-76
2022/10/12 10:16:28;;;;;;;36.08;29.95;;;;;;;;;;6289740;22;20019;-78
2022/10/12 10:18:58;;;;;;;44.17;31.70;;;;;;;;;;6293054;22;20007;-77
2022/10/12 10:21:27;;;;;;;;;;;;;;;;;;6294530;22;20014;-76
2022/10/12 10:23:55;;;;;;;37.67;30.10;;;;;;;;;;6293425;22;19943;-78
2022/10/12 10:26:22;;;;;;;34.22;27.17;;;;;;;;;;6289224;22;20011;-76
2022/10/12 10:28:50;;;;;;;35.20;29.27;;;;;;;;;;6299998;22;20067;-76
2022/10/12 10:31:24;;;;;;;35.33;28.73;;;;;;;;;;6272109;22;19991;-76
2022/10/12 10:34:09;;;;;;;37.58;29.33;;;;;;;;;;6301830;22;20083;-76
2022/10/12 10:36:39;;;;;;;36.63;29.88;;;;;;;;;;6270739;22;20647;-76
2022/10/12 10:39:07;;;;;;;38.45;29.90;;;;;;;;;;6301067;22;20072;-76
2022/10/12 10:41:38;;;;;;;34.90;29.63;;;;;;;;;;6298019;22;20048;-75
2022/10/12 10:44:40;;;;;;;40.63;29.27;;;;;;;;;;6287537;22;20000;-75
2022/10/12 10:47:10;;;;;;;43.42;31.35;;;;;;;;;;6295929;22;20004;-77
2022/10/12 10:49:46;;;;;;;37.35;30.20;;;;;;;;;;6292970;22;20008;-79
2022/10/12 10:52:30;;;;;;;34.83;29.27;;;;;;;;;;6293246;22;20000;-76
2022/10/12 10:55:19;;;;;;;39.38;29.17;;;;;;;;;;6292528;22;20006;-78
2022/10/12 10:57:48;;;;;;;37.13;28.40;;;;;;;;;;6294159;22;20007;-77
2022/10/12 11:00:18;;;;;;;34.42;29.80;;;;;;;;;;6296286;22;20075;-78
2022/10/12 11:03:00;;;;;;;41.75;31.67;;;;;;;;;;6294576;22;20003;-77
2022/10/12 11:05:34;;;;;;;41.13;32.72;;;;;;;;;;6290255;22;20023;-78
2022/10/12 11:08:02;;;;;;;42.70;31.73;;;;;;;;;;6287145;22;20006;-77
2022/10/12 11:10:30;;;;;;;46.10;32.05;;;;;;;;;;6290548;22;20012;-79
2022/10/12 11:13:05;;;;;;;42.75;33.67;;;;;;;;;;6290358;22;20031;-75
2022/10/12 11:15:52;;;;;;;43.95;32.63;;;;;;;;;;6270553;22;20019;-80
2022/10/12 11:18:48;;;;;;;41.00;30.95;;;;;;;;;;6270708;22;20011;-76
2022/10/12 11:21:44;;;;;;;43.45;32.72;;;;;;;;;;6225294;22;20007;-77
2022/10/12 11:24:53;;;;;;;42.90;34.20;;;;;;;;;;6274915;22;20004;-76
2022/10/12 11:27:43;;;;;;;42.45;35.28;;;;;;;;;;6298522;22;20036;-76
2022/10/12 11:30:40;;;;;;;47.53;37.17;;;;;;;;;;6144723;23;20006;-77
2022/10/12 11:33:22;;;;;;;47.97;35.58;;;;;;;;;;6151318;23;20070;-78
2022/10/12 11:38:49;;;;;;;48.88;37.63;;;;;;;;;;6291206;22;20230;-79
2022/10/12 11:41:24;;;;;;;42.35;33.75;;;;;;;;;;6262491;22;20008;-77
2022/10/12 11:46:36;;;;;;;48.05;33.05;;;;;;;;;;6188390;23;20032;-78
2022/10/12 11:49:20;;;;;;;44.33;33.97;;;;;;;;;;6179427;23;20024;-81
2022/10/12 11:51:48;;;;;;;42.65;30.27;;;;;;;;;;6211602;22;20023;-77
2022/10/12 11:54:44;;;;;;;42.63;29.05;;;;;;;;;;6292943;22;20333;-76
2022/10/12 11:57:35;;;;;;;47.53;31.65;;;;;;;;;;6298606;22;20087;-81
2022/10/12 12:00:32;;;;;;;38.28;28.60;;;;;;;;;;6263475;22;20012;-80
2022/10/12 12:16:55;;;;;;;31.55;26.48;;;;;;;;;;6295734;22;20076;-79
2022/10/12 12:19:41;;;;;;;36.75;27.05;;;;;;;;;;6272312;22;20024;-76
2022/10/12 12:22:16;;;;;;;36.55;27.00;;;;;;;;;;6286131;22;20000;-78
2022/10/12 12:25:11;;;;;;;36.47;27.95;;;;;;;;;;6300057;22;20003;-79
2022/10/12 12:39:38;;;;;;;39.63;29.67;;;;;;;;;;6207763;22;20039;-77
2022/10/12 12:42:08;;;;;;;32.63;28.10;;;;;;;;;;6210285;23;20020;-78
2022/10/12 12:49:59;;;;;;;37.58;28.95;;;;;;;;;;6294670;22;20113;-76
2022/10/12 12:52:29;;;;;;;38.33;29.13;;;;;;;;;;6268419;22;20031;-78
2022/10/12 12:55:14;;;;;;;38.22;28.38;;;;;;;;;;6273430;22;20417;-76
2022/10/12 12:58:00;;;;;;;36.92;26.85;;;;;;;;;;6299356;22;19984;-77
2022/10/12 13:00:39;;;;;;;34.35;27.70;;;;;;;;;;6299646;22;20037;-79
2022/10/12 13:03:14;;;;;;;34.30;26.75;;;;;;;;;;6296012;22;20006;-78
2022/10/12 13:06:01;;;;;;;47.10;27.35;;;;;;;;;;6267855;22;19992;-79
2022/10/12 13:08:40;;;;;;;34.05;26.63;;;;;;;;;;6265414;22;20007;-79
2022/10/12 13:11:20;;;;;;;41.15;28.95;;;;;;;;;;6291398;22;20004;-79
2022/10/12 13:14:05;;;;;;;39.13;26.23;;;;;;;;;;6267350;22;19994;-77
2022/10/12 13:16:54;;;;;;;35.00;26.00;;;;;;;;;;6298647;22;20004;-79
2022/10/12 13:19:20;;;;;;;36.53;26.33;;;;;;;;;;6300086;22;20067;-78
2022/10/12 13:21:51;;;;;;;32.40;26.85;;;;;;;;;;6270003;22;20094;-78
2022/10/12 13:24:43;;;;;;;40.63;26.88;;;;;;;;;;6293703;22;19999;-77
2022/10/12 13:27:21;;;;;;;39.53;28.88;;;;;;;;;;6117522;23;20062;-78
2022/10/12 13:30:13;;;;;;;32.30;26.50;;;;;;;;;;6120444;23;20018;-77
2022/10/12 13:32:58;;;;;;;39.58;29.58;;;;;;;;;;6143797;23;20024;-78
2022/10/12 13:35:49;;;;;;;39.47;28.17;;;;;;;;;;6119367;23;20017;-79
2022/10/12 13:38:26;;;;;;;33.80;27.27;;;;;;;;;;6145111;23;20006;-78
2022/10/12 13:41:01;;;;;;;41.00;28.70;;;;;;;;;;6141235;23;20002;-78
2022/10/12 13:43:53;;;;;;;36.58;29.83;;;;;;;;;;6125045;23;20073;-77
2022/10/12 13:46:37;;;;;;;40.00;31.20;;;;;;;;;;6152584;23;20018;-78
2022/10/12 13:49:21;;;;;;;41.90;33.30;;;;;;;;;;6148087;23;20034;-78
2022/10/12 13:54:27;;;;;;;47.05;32.53;;;;;;;;;;6273083;22;20115;-82
2022/10/12 13:56:56;;;;;;;48.65;35.10;;;;;;;;;;6244020;23;20035;-78
2022/10/12 13:59:25;;;;;;;48.28;35.67;;;;;;;;;;6272301;22;20014;-78
2022/10/12 14:02:00;;;;;;;46.88;37.50;;;;;;;;;;6270290;23;20004;-77
2022/10/12 14:04:59;;;;;;;48.88;38.72;;;;;;;;;;6271521;22;20008;-78
2022/10/12 14:07:33;;;;;;;52.17;41.70;;;;;;;;;;6097867;23;19994;-78
2022/10/12 14:10:35;;;;;;;48.28;40.65;;;;;;;;;;6117779;23;20022;-79
2022/10/12 14:13:03;;;;;;;46.33;40.30;;;;;;;;;;6120514;23;20093;-81
2022/10/12 14:15:50;;;;;;;52.10;40.25;;;;;;;;;;6118832;23;20013;-79
2022/10/12 14:18:37;;;;;;;47.90;38.53;;;;;;;;;;6121825;23;20006;-77
2022/10/12 14:21:25;;;;;;;52.60;40.35;;;;;;;;;;6094898;23;20017;-77
2022/10/12 14:23:59;;;;;;;48.97;39.42;;;;;;;;;;6084162;23;20021;-76
2022/10/12 14:26:49;;;;;;;50.33;42.45;;;;;;;;;;6087743;23;20366;-79
2022/10/12 14:29:35;;;;;;;51.13;40.03;;;;;;;;;;6117932;23;20007;-78
2022/10/12 14:32:04;;;;;;;46.60;40.30;;;;;;;;;;6112253;23;20029;-78
2022/10/12 14:35:07;;;;;;;53.15;39.30;;;;;;;;;;6111289;23;20030;-77
2022/10/12 14:37:37;;;;;;;48.25;40.15;;;;;;;;;;6116263;23;20006;-77
2022/10/12 14:40:27;;;;;;;52.20;38.92;;;;;;;;;;6090497;23;20042;-76
2022/10/12 14:43:04;;;;;;;54.63;39.45;;;;;;;;;;6182122;23;20008;-79
2022/10/12 14:45:50;;;;;;;51.85;37.85;;;;;;;;;;6269026;23;20004;-78
2022/10/12 14:48:19;;;;;;;49.88;37.72;;;;;;;;;;6228258;23;20035;-76
2022/10/12 14:50:45;;;;;;;45.45;39.35;;;;;;;;;;6248009;23;19985;-78
2022/10/12 14:53:15;;;;;;;48.13;39.22;;;;;;;;;;6240208;23;20015;-76
2022/10/12 14:55:59;;;;;;;44.22;37.47;;;;;;;;;;6242667;23;19981;-81
2022/10/12 14:58:32;;;;;;;42.83;38.05;;;;;;;;;;6242937;23;20040;-80
2022/10/12 15:01:17;;;;;;;44.53;38.70;;;;;;;;;;6229956;23;20016;-77
2022/10/12 15:03:45;;;;;;;46.60;38.15;;;;;;;;;;6229673;23;19997;-78
2022/10/12 15:06:16;;;;;;;47.88;40.10;;;;;;;;;;6227293;23;20023;-78
2022/10/12 15:08:45;;;;;;;51.20;38.97;;;;;;;;;;6229464;23;20080;-76
2022/10/12 15:11:22;;;;;;;57.15;40.22;;;;;;;;;;6237933;23;20009;-78
2022/10/12 15:13:59;;;;;;;47.15;39.53;;;;;;;;;;6240986;22;20013;-78
2022/10/12 15:16:28;;;;;;;51.95;42.08;;;;;;;;;;6235084;23;20004;-78
2022/10/12 15:18:58;;;;;;;52.30;41.83;;;;;;;;;;6240081;23;19993;-76
2022/10/12 15:21:35;;;;;;;56.30;42.13;;;;;;;;;;6239248;23;19997;-75